Appleyard, Washington
Current Conditions -  °F | °C
As of 1:55 AM on Saturday 01 Nov 2014 (Local Time) from KEAT Reporting Station
Clear Clear  
Wind Chill: 43°   Ceiling: Unl
Heat Index: 47°   Visibility: 10mi
Dew Point: 38°   Wind: 8mph
Humidity: 71%   Direction: 310°NW
Pressure: 29.78"   Gusts: NA
Location:  47.3635°N, 120.348°W
Report Text: KEAT 010855Z AUTO 31007KT 10SM CLR 08/03 A2978 RMK AO2 SLP085 T00830033 58002
Loading
Personal Weather Stations






























Interactive Weather Map
Tropical Storm Tracking
New forecast layout! Learn more

10-Day Weather Forecast

Advertisements
Track Severe Weather on mobile